Time;durP1;ratioP1;P1;durP2;ratioP2;P2;SDS_P1;SDS_P2;PMS_P1;PMS_P2;Temp;Humidity;BMP_temperature;BMP_pressure;BME280_temperature;BME280_humidity;BME280_pressure;Samples;Min_cycle;Max_cycle;Signal;HPM_P1;HPM_P2
2022/12/05 00:00:55;;;;;;;56.30;14.65;;;;;;;0.01;0.00;59042.03;5012543;28;20045;-53
2022/12/05 00:03:21;;;;;;;50.58;14.13;;;;;;;0.01;0.00;59042.03;5014810;28;20092;-54
2022/12/05 00:05:46;;;;;;;58.20;14.10;;;;;;;0.01;0.00;59042.03;5013827;28;20661;-54
2022/12/05 00:08:12;;;;;;;45.47;13.77;;;;;;;0.01;0.00;59042.03;5012654;28;20042;-53
2022/12/05 00:10:38;;;;;;;43.75;12.35;;;;;;;0.01;0.00;59042.03;5014143;28;20040;-53
2022/12/05 00:13:03;;;;;;;55.50;14.05;;;;;;;0.01;0.00;59042.03;5015994;28;20674;-54
2022/12/05 00:15:29;;;;;;;58.58;14.45;;;;;;;0.01;0.00;59042.03;5016486;28;20037;-54
2022/12/05 00:17:54;;;;;;;40.42;12.45;;;;;;;0.01;0.00;59042.03;5017413;28;20778;-54
2022/12/05 00:20:20;;;;;;;49.70;14.32;;;;;;;0.01;0.00;59042.03;5014253;28;20029;-55
2022/12/05 00:22:45;;;;;;;46.58;13.02;;;;;;;0.01;0.00;59042.03;5015249;28;20021;-56
2022/12/05 00:25:11;;;;;;;45.33;12.43;;;;;;;0.01;0.00;59042.03;5013486;28;20902;-56
2022/12/05 00:27:37;;;;;;;54.50;14.05;;;;;;;0.01;0.00;59042.03;5016262;28;20022;-53
2022/12/05 00:30:03;;;;;;;47.30;14.05;;;;;;;0.01;0.00;59042.03;5016704;28;20033;-53
2022/12/05 00:32:29;;;;;;;49.38;14.70;;;;;;;0.01;0.00;59042.03;4998020;28;20111;-53
2022/12/05 00:34:54;;;;;;;32.47;8.35;;;;;;;0.01;0.00;59042.03;5019426;28;20029;-53
2022/12/05 00:37:20;;;;;;;47.00;13.23;;;;;;;0.01;0.00;59042.03;5020358;28;20049;-54
2022/12/05 00:39:45;;;;;;;49.65;13.85;;;;;;;0.01;0.00;59042.03;5019636;28;20091;-53
2022/12/05 00:42:10;;;;;;;50.08;14.02;;;;;;;0.01;0.00;59042.03;5019821;28;20037;-53
2022/12/05 00:44:36;;;;;;;56.22;14.00;;;;;;;0.01;0.00;59042.03;5020219;28;20072;-54
2022/12/05 00:47:01;;;;;;;47.42;13.20;;;;;;;0.01;0.00;59042.03;5020141;28;20188;-54
2022/12/05 00:49:27;;;;;;;50.38;13.65;;;;;;;0.01;0.00;59042.03;5019264;28;20025;-53
2022/12/05 00:51:53;;;;;;;53.50;13.73;;;;;;;0.01;0.00;59042.03;5015940;28;20056;-54
2022/12/05 00:54:18;;;;;;;39.13;11.77;;;;;;;0.01;0.00;59042.03;5019511;28;20662;-55
2022/12/05 00:56:44;;;;;;;47.15;13.20;;;;;;;0.01;0.00;59042.03;5019531;28;20042;-53
2022/12/05 00:59:15;;;;;;;52.42;13.27;;;;;;;0.01;0.00;59042.03;5020408;28;20117;-53
2022/12/05 01:01:42;;;;;;;52.70;13.68;;;;;;;0.01;0.00;59042.03;5019304;28;20068;-56
2022/12/05 01:04:14;;;;;;;48.35;13.40;;;;;;;0.01;0.00;59042.03;5019419;28;20380;-54
2022/12/05 01:06:40;;;;;;;48.92;13.77;;;;;;;0.01;0.00;59042.03;5019520;28;20045;-53
2022/12/05 01:09:07;;;;;;;47.55;13.68;;;;;;;0.01;0.00;59042.03;5019308;28;20869;-53
2022/12/05 01:11:32;;;;;;;45.60;13.38;;;;;;;0.01;0.00;59042.03;5019426;28;20065;-55
2022/12/05 01:13:57;;;;;;;48.92;12.68;;;;;;;0.01;0.00;59042.03;5018676;28;20048;-54
2022/12/05 01:16:28;;;;;;;48.40;14.18;;;;;;;0.01;0.00;59042.03;5019860;28;20037;-53
2022/12/05 01:18:55;;;;;;;52.33;13.23;;;;;;;0.01;0.00;59042.03;5019601;28;20108;-54
2022/12/05 01:21:20;;;;;;;46.45;12.82;;;;;;;0.01;0.00;59042.03;5015667;28;20033;-54
2022/12/05 01:23:46;;;;;;;47.50;13.60;;;;;;;0.01;0.00;59042.03;5018501;28;20029;-54
2022/12/05 01:26:14;;;;;;;61.17;16.08;;;;;;;0.01;0.00;59042.03;5018882;28;20037;-53
2022/12/05 01:28:40;;;;;;;65.18;15.45;;;;;;;0.01;0.00;59042.03;5020048;28;20033;-53
2022/12/05 01:31:13;;;;;;;55.42;15.93;;;;;;;0.01;0.00;59042.03;5018680;28;20423;-54
2022/12/05 01:33:38;;;;;;;61.08;15.50;;;;;;;0.01;0.00;59042.03;5019149;28;20060;-53
2022/12/05 01:36:06;;;;;;;59.35;16.08;;;;;;;0.01;0.00;59042.03;4984760;28;20160;-53
2022/12/05 01:38:31;;;;;;;55.95;15.25;;;;;;;0.01;0.00;59042.03;5018817;28;20108;-54
2022/12/05 01:41:02;;;;;;;57.42;16.48;;;;;;;0.01;0.00;59042.03;5018590;28;20416;-53
2022/12/05 01:43:27;;;;;;;63.90;15.68;;;;;;;0.01;0.00;59042.03;5018826;28;20029;-53
2022/12/05 01:45:52;;;;;;;61.00;15.95;;;;;;;0.01;0.00;59042.03;5018162;28;20255;-56
2022/12/05 01:48:29;;;;;;;53.47;15.85;;;;;;;0.01;0.00;59042.03;5019773;28;20481;-53
2022/12/05 01:50:57;;;;;;;57.05;16.33;;;;;;;0.01;0.00;59042.03;5013897;28;20045;-56
2022/12/05 01:53:23;;;;;;;47.47;14.52;;;;;;;0.01;0.00;59042.03;5017024;28;20026;-53
2022/12/05 01:55:50;;;;;;;53.95;14.48;;;;;;;0.01;0.00;59042.03;5018269;28;20100;-55
2022/12/05 01:58:16;;;;;;;56.50;14.85;;;;;;;0.01;0.00;59042.03;5018721;28;20033;-54
2022/12/05 02:00:42;;;;;;;63.05;15.77;;;;;;;0.01;0.00;59042.03;5017461;28;20045;-53
2022/12/05 02:03:13;;;;;;;54.70;15.80;;;;;;;0.01;0.00;59042.03;5018833;28;20372;-53
2022/12/05 02:05:38;;;;;;;54.35;14.73;;;;;;;0.01;0.00;59042.03;5018127;28;20071;-55
2022/12/05 02:08:07;;;;;;;56.75;14.55;;;;;;;0.01;0.00;59042.03;5018991;28;20376;-56
2022/12/05 02:10:42;;;;;;;50.78;13.75;;;;;;;0.01;0.00;59042.03;5017978;28;20114;-55
2022/12/05 02:13:26;;;;;;;55.88;14.40;;;;;;;0.01;0.00;59042.03;5018289;28;20029;-54
2022/12/05 02:16:03;;;;;;;59.83;15.77;;;;;;;0.01;0.00;59042.03;5017786;28;20050;-55
2022/12/05 02:18:55;;;;;;;54.67;15.00;;;;;;;0.01;0.00;59042.03;5018675;28;20120;-54
2022/12/05 02:21:51;;;;;;;47.83;14.55;;;;;;;0.01;0.00;59042.03;5013955;28;20044;-54
2022/12/05 02:24:49;;;;;;;51.17;13.75;;;;;;;0.01;0.00;59042.03;5017902;28;20116;-54
2022/12/05 02:27:31;;;;;;;49.50;13.18;;;;;;;0.01;0.00;59042.03;4994841;28;20577;-53
2022/12/05 02:30:10;;;;;;;63.28;15.35;;;;;;;0.01;0.00;59042.03;5018319;28;20026;-53
2022/12/05 02:33:09;;;;;;;45.55;13.77;;;;;;;0.01;0.00;59042.03;5017913;28;20083;-53
2022/12/05 02:35:50;;;;;;;42.30;11.55;;;;;;;0.01;0.00;59042.03;5017041;28;20112;-54
2022/12/05 02:38:40;;;;;;;55.92;13.73;;;;;;;0.01;0.00;59042.03;5018207;28;20026;-56
2022/12/05 02:41:24;;;;;;;47.92;12.00;;;;;;;0.01;0.00;59042.03;5017035;28;20045;-55
2022/12/05 02:43:55;;;;;;;36.55;9.05;;;;;;;0.01;0.00;59042.03;5017898;28;20451;-53
2022/12/05 02:46:24;;;;;;;41.20;10.18;;;;;;;0.01;0.00;59042.03;5017453;28;20041;-54
2022/12/05 02:48:55;;;;;;;46.03;11.98;;;;;;;0.01;0.00;59042.03;5018185;28;20022;-57
2022/12/05 02:51:24;;;;;;;53.20;13.00;;;;;;;0.01;0.00;59042.03;5014165;28;20645;-54
2022/12/05 02:53:51;;;;;;;49.60;12.20;;;;;;;0.01;0.00;59042.03;5014867;28;20874;-53
2022/12/05 02:56:18;;;;;;;50.90;13.98;;;;;;;0.01;0.00;59042.03;5015712;28;20128;-55
2022/12/05 02:58:49;;;;;;;44.08;13.40;;;;;;;0.01;0.00;59042.03;5016793;28;20035;-53
2022/12/05 03:01:17;;;;;;;54.83;14.23;;;;;;;0.01;0.00;59042.03;5016283;28;20029;-54
2022/12/05 03:03:43;;;;;;;39.53;12.00;;;;;;;0.01;0.00;59042.03;5017865;28;20132;-55
2022/12/05 03:06:14;;;;;;;37.00;10.45;;;;;;;0.01;0.00;59042.03;5017008;28;20236;-54
2022/12/05 03:08:52;;;;;;;38.05;10.20;;;;;;;0.01;0.00;59042.03;5017696;28;20021;-53
2022/12/05 03:11:18;;;;;;;52.72;14.07;;;;;;;0.01;0.00;59042.03;5016577;28;20033;-56
2022/12/05 03:13:50;;;;;;;45.65;12.25;;;;;;;0.01;0.00;59042.03;5017108;28;20021;-53
2022/12/05 03:16:40;;;;;;;38.55;10.98;;;;;;;0.01;0.00;59042.03;5017348;28;20478;-53
2022/12/05 03:19:19;;;;;;;55.90;14.15;;;;;;;0.01;0.00;59042.03;5015910;28;20063;-53
2022/12/05 03:22:13;;;;;;;59.78;14.48;;;;;;;0.01;0.00;59042.03;5012231;28;20048;-54
2022/12/05 03:24:40;;;;;;;42.53;10.57;;;;;;;0.01;0.00;59042.03;5016646;28;20026;-53
2022/12/05 03:27:17;;;;;;;30.17;7.65;;;;;;;0.01;0.00;59042.03;5016365;28;20068;-53
2022/12/05 03:29:55;;;;;;;51.15;12.75;;;;;;;0.01;0.00;59042.03;5016781;28;20428;-55
2022/12/05 03:32:51;;;;;;;55.58;15.38;;;;;;;0.01;0.00;59042.03;5016727;28;20137;-56
2022/12/05 03:35:27;;;;;;;37.42;10.10;;;;;;;0.01;0.00;59042.03;5016902;28;20029;-55
2022/12/05 03:38:08;;;;;;;54.90;12.40;;;;;;;0.01;0.00;59042.03;5017351;28;20032;-55
2022/12/05 03:40:40;;;;;;;45.80;12.00;;;;;;;0.01;0.00;59042.03;5016970;28;20091;-56
2022/12/05 03:43:11;;;;;;;43.42;12.35;;;;;;;0.01;0.00;59042.03;5016750;28;20527;-53
2022/12/05 03:45:48;;;;;;;51.07;13.87;;;;;;;0.01;0.00;59042.03;5016934;28;20407;-55
2022/12/05 03:48:25;;;;;;;30.38;7.22;;;;;;;0.01;0.00;59042.03;5018158;28;20033;-54
2022/12/05 03:50:52;;;;;;;36.08;7.13;;;;;;;0.01;0.00;59042.03;5014256;28;20180;-54
2022/12/05 03:53:34;;;;;;;44.47;10.20;;;;;;;0.01;0.00;59042.03;5014024;28;20026;-54
2022/12/05 03:56:08;;;;;;;69.22;13.05;;;;;;;0.01;0.00;59042.03;5014337;28;20045;-55
2022/12/05 03:58:43;;;;;;;68.70;16.73;;;;;;;0.01;0.00;59042.03;4999336;28;20029;-54
2022/12/05 04:01:11;;;;;;;47.05;11.73;;;;;;;0.01;0.00;59042.03;5015785;28;20069;-54
2022/12/05 04:03:43;;;;;;;58.00;14.70;;;;;;;0.01;0.00;59042.03;5016950;28;20035;-55
2022/12/05 04:06:24;;;;;;;49.75;12.68;;;;;;;0.01;0.00;59042.03;5016975;28;20501;-53
2022/12/05 04:08:53;;;;;;;44.80;11.90;;;;;;;0.01;0.00;59042.03;5018489;28;20049;-54
2022/12/05 04:11:24;;;;;;;45.13;11.20;;;;;;;0.01;0.00;59042.03;5019709;28;20071;-54
2022/12/05 04:13:52;;;;;;;37.15;9.95;;;;;;;0.01;0.00;59042.03;5021021;28;20065;-54
2022/12/05 04:19:20;;;;;;;44.45;11.43;;;;;;;0.01;0.00;59042.03;5021705;28;20304;-55
2022/12/05 04:21:50;;;;;;;41.00;8.80;;;;;;;0.01;0.00;59042.03;5016839;28;20075;-54
2022/12/05 04:27:41;;;;;;;55.30;13.02;;;;;;;0.01;0.00;59042.03;5020214;28;20602;-53
2022/12/05 04:30:15;;;;;;;61.45;13.43;;;;;;;0.01;0.00;59042.03;5004100;28;20136;-53
2022/12/05 04:32:55;;;;;;;60.95;12.70;;;;;;;0.01;0.00;59042.03;5020710;28;20022;-54
2022/12/05 04:35:26;;;;;;;66.57;14.57;;;;;;;0.01;0.00;59042.03;5020220;28;20151;-54
2022/12/05 04:37:59;;;;;;;54.05;12.45;;;;;;;0.01;0.00;59042.03;5021068;28;20716;-55
2022/12/05 04:40:38;;;;;;;61.13;13.45;;;;;;;0.01;0.00;59042.03;5019673;28;20041;-56
2022/12/05 04:43:05;;;;;;;68.63;16.10;;;;;;;0.01;0.00;59042.03;5020486;28;20072;-55
2022/12/05 04:45:33;;;;;;;33.95;6.88;;;;;;;0.01;0.00;59042.03;5019695;28;20033;-55
2022/12/05 04:48:03;;;;;;;77.25;17.88;;;;;;;0.01;0.00;59042.03;5020616;28;20037;-55
2022/12/05 04:50:32;;;;;;;75.45;16.33;;;;;;;0.01;0.00;59042.03;5017343;28;20056;-55
2022/12/05 04:53:00;;;;;;;54.95;14.68;;;;;;;0.01;0.00;59042.03;5017020;28;20030;-56
2022/12/05 04:55:26;;;;;;;45.13;9.43;;;;;;;0.01;0.00;59042.03;5020128;28;20068;-55
2022/12/05 04:57:52;;;;;;;59.63;15.90;;;;;;;0.01;0.00;59042.03;5019829;28;20030;-55
2022/12/05 05:00:17;;;;;;;53.28;13.80;;;;;;;0.01;0.00;59042.03;5020249;28;20615;-55
2022/12/05 05:02:53;;;;;;;58.05;14.40;;;;;;;0.01;0.00;59042.03;5019828;28;20048;-55
2022/12/05 05:05:20;;;;;;;59.30;11.35;;;;;;;0.01;0.00;59042.03;5019462;28;20021;-55
2022/12/05 05:07:48;;;;;;;72.70;14.68;;;;;;;0.01;0.00;59042.03;5020157;28;20486;-56
2022/12/05 05:10:17;;;;;;;48.90;11.00;;;;;;;0.01;0.00;59042.03;5019491;28;20025;-57
2022/12/05 05:12:43;;;;;;;59.60;14.18;;;;;;;0.01;0.00;59042.03;5020151;28;20029;-55
2022/12/05 05:15:08;;;;;;;51.58;13.23;;;;;;;0.01;0.00;59042.03;5019161;28;20041;-55
2022/12/05 05:17:34;;;;;;;33.35;7.93;;;;;;;0.01;0.00;59042.03;5019649;28;20024;-55
2022/12/05 05:20:22;;;;;;;63.08;15.57;;;;;;;0.01;0.00;59042.03;5017522;28;20032;-55
2022/12/05 05:22:48;;;;;;;44.85;10.00;;;;;;;0.01;0.00;59042.03;5016324;28;20680;-55
2022/12/05 05:25:13;;;;;;;59.88;13.40;;;;;;;0.01;0.00;59042.03;5019332;28;20034;-55
2022/12/05 05:27:39;;;;;;;49.63;12.07;;;;;;;0.01;0.00;59042.03;5019547;28;20043;-56
2022/12/05 05:30:05;;;;;;;50.60;11.25;;;;;;;0.01;0.00;59042.03;5019545;28;20021;-57
2022/12/05 05:32:33;;;;;;;49.53;12.35;;;;;;;0.01;0.00;59042.03;5019250;28;20590;-56
2022/12/05 05:34:59;;;;;;;37.22;9.93;;;;;;;0.01;0.00;59042.03;5001960;28;20789;-56
2022/12/05 05:37:24;;;;;;;43.10;10.63;;;;;;;0.01;0.00;59042.03;5018936;28;20033;-55
2022/12/05 05:39:49;;;;;;;46.25;11.32;;;;;;;0.01;0.00;59042.03;5019270;28;20041;-55
2022/12/05 05:42:15;;;;;;;54.45;11.73;;;;;;;0.01;0.00;59042.03;5018604;28;20128;-56
2022/12/05 05:44:40;;;;;;;45.58;10.50;;;;;;;0.01;0.00;59042.03;5019403;28;20084;-55
2022/12/05 05:47:05;;;;;;;34.90;8.75;;;;;;;0.01;0.00;59042.03;5019314;28;20038;-57
2022/12/05 05:49:30;;;;;;;42.70;8.52;;;;;;;0.01;0.00;59042.03;5018053;28;20034;-55
2022/12/05 05:51:56;;;;;;;44.28;10.20;;;;;;;0.01;0.00;59042.03;5015664;28;20041;-56
2022/12/05 05:54:21;;;;;;;40.08;9.60;;;;;;;0.01;0.00;59042.03;5018183;28;20025;-56
2022/12/05 05:56:46;;;;;;;38.45;8.85;;;;;;;0.01;0.00;59042.03;5018396;28;20128;-55
2022/12/05 05:59:12;;;;;;;37.83;9.15;;;;;;;0.01;0.00;59042.03;5019887;28;20075;-55
2022/12/05 06:01:37;;;;;;;43.00;9.50;;;;;;;0.01;0.00;59042.03;5018147;28;20034;-55
2022/12/05 06:04:02;;;;;;;43.20;9.57;;;;;;;0.01;0.00;59042.03;5019029;28;20458;-55
2022/12/05 06:06:28;;;;;;;32.72;8.40;;;;;;;0.01;0.00;59042.03;5018547;28;20037;-55
2022/12/05 06:08:53;;;;;;;35.42;8.45;;;;;;;0.01;0.00;59042.03;5018964;28;20335;-55
2022/12/05 06:11:23;;;;;;;33.15;8.68;;;;;;;0.01;0.00;59042.03;5015124;28;20037;-55
2022/12/05 06:13:48;;;;;;;36.63;7.88;;;;;;;0.01;0.00;59042.03;5016532;28;20501;-55
2022/12/05 06:16:15;;;;;;;36.00;8.90;;;;;;;0.01;0.00;59042.03;5018362;28;20050;-55
2022/12/05 06:18:41;;;;;;;38.45;7.78;;;;;;;0.01;0.00;59042.03;5018670;28;20443;-55
2022/12/05 06:21:07;;;;;;;30.88;6.60;;;;;;;0.01;0.00;59042.03;5018083;28;20601;-55
2022/12/05 06:23:34;;;;;;;36.22;9.07;;;;;;;0.01;0.00;59042.03;5018691;28;20411;-55
2022/12/05 06:26:00;;;;;;;31.50;6.85;;;;;;;0.01;0.00;59042.03;5018238;28;20037;-55
2022/12/05 06:28:26;;;;;;;29.88;7.47;;;;;;;0.01;0.00;59042.03;5018944;28;20045;-56
2022/12/05 06:30:52;;;;;;;44.03;7.90;;;;;;;0.01;0.00;59042.03;5013793;28;20041;-55
2022/12/05 06:33:18;;;;;;;32.17;8.95;;;;;;;0.01;0.00;59042.03;5016888;28;20013;-55
2022/12/05 06:35:43;;;;;;;42.63;9.23;;;;;;;0.01;0.00;59042.03;5017293;28;20052;-56
2022/12/05 06:38:09;;;;;;;30.73;7.10;;;;;;;0.01;0.00;59042.03;5018629;28;20039;-55
2022/12/05 06:40:39;;;;;;;37.60;8.25;;;;;;;0.01;0.00;59042.03;5017331;28;20087;-56
2022/12/05 06:43:04;;;;;;;41.90;8.10;;;;;;;0.01;0.00;59042.03;5018296;28;20025;-57
2022/12/05 06:45:30;;;;;;;48.72;9.88;;;;;;;0.01;0.00;59042.03;5017920;28;20040;-55
2022/12/05 06:47:55;;;;;;;41.72;8.13;;;;;;;0.01;0.00;59042.03;5018334;28;20035;-55
2022/12/05 06:50:20;;;;;;;45.80;9.38;;;;;;;0.01;0.00;59042.03;5017372;28;20030;-55
2022/12/05 06:52:46;;;;;;;42.72;9.77;;;;;;;0.01;0.00;59042.03;5018419;28;20025;-55
2022/12/05 06:55:11;;;;;;;38.38;8.35;;;;;;;0.01;0.00;59042.03;5017729;28;20079;-55
2022/12/05 06:57:36;;;;;;;32.85;7.30;;;;;;;0.01;0.00;59042.03;5018152;28;20045;-55
2022/12/05 07:02:50;;;;;;;57.80;11.98;;;;;;;0.01;0.00;59042.03;5015116;28;20059;-57
2022/12/05 07:05:15;;;;;;;48.33;9.82;;;;;;;0.01;0.00;59042.03;5016884;28;20025;-56
2022/12/05 07:07:40;;;;;;;31.98;7.32;;;;;;;0.01;0.00;59042.03;5018388;28;20818;-56
2022/12/05 07:10:06;;;;;;;52.65;11.48;;;;;;;0.01;0.00;59042.03;5017433;28;20166;-56
2022/12/05 07:12:32;;;;;;;47.60;10.77;;;;;;;0.01;0.00;59042.03;5017677;28;20764;-57
2022/12/05 07:14:58;;;;;;;51.88;10.52;;;;;;;0.01;0.00;59042.03;5017761;28;20022;-57
2022/12/05 07:17:24;;;;;;;44.30;10.52;;;;;;;0.01;0.00;59042.03;5017213;28;20071;-56
2022/12/05 07:19:50;;;;;;;38.33;9.20;;;;;;;0.01;0.00;59042.03;5017796;28;20029;-55
2022/12/05 07:22:17;;;;;;;41.97;9.40;;;;;;;0.01;0.00;59042.03;5017144;28;20933;-55
2022/12/05 07:24:44;;;;;;;42.55;8.95;;;;;;;0.01;0.00;59042.03;5017263;28;20642;-56
2022/12/05 07:27:10;;;;;;;35.25;7.95;;;;;;;0.01;0.00;59042.03;5017894;28;20045;-54
2022/12/05 07:29:35;;;;;;;51.50;9.70;;;;;;;0.01;0.00;59042.03;5016398;28;20402;-56
2022/12/05 07:32:00;;;;;;;39.25;8.52;;;;;;;0.01;0.00;59042.03;5012991;28;20804;-55
2022/12/05 07:34:26;;;;;;;46.53;9.93;;;;;;;0.01;0.00;59042.03;5016065;28;20031;-55
2022/12/05 07:36:51;;;;;;;43.85;8.52;;;;;;;0.01;0.00;59042.03;5016492;28;20083;-55
2022/12/05 07:39:16;;;;;;;35.45;8.18;;;;;;;0.01;0.00;59042.03;5017780;28;20037;-55
2022/12/05 07:41:42;;;;;;;45.33;10.40;;;;;;;0.01;0.00;59042.03;5016737;28;20095;-55
2022/12/05 07:44:10;;;;;;;41.15;8.43;;;;;;;0.01;0.00;59042.03;5019197;28;20272;-55
2022/12/05 07:46:36;;;;;;;45.88;8.75;;;;;;;0.01;0.00;59042.03;5021484;28;20578;-55
2022/12/05 07:49:02;;;;;;;28.75;7.70;;;;;;;0.01;0.00;59042.03;5021954;28;20116;-55
2022/12/05 07:51:27;;;;;;;43.92;9.77;;;;;;;0.01;0.00;59042.03;5017334;28;20043;-56
2022/12/05 07:53:53;;;;;;;50.65;9.52;;;;;;;0.01;0.00;59042.03;5019542;28;20034;-56
2022/12/05 07:56:18;;;;;;;53.75;10.77;;;;;;;0.01;0.00;59042.03;5021183;28;20123;-56
2022/12/05 07:58:47;;;;;;;52.92;9.82;;;;;;;0.01;0.00;59042.03;5005312;28;20171;-56
2022/12/05 08:01:14;;;;;;;36.03;8.77;;;;;;;0.01;0.00;59042.03;5020916;28;20457;-55
2022/12/05 08:03:41;;;;;;;40.97;10.10;;;;;;;0.01;0.00;59042.03;5021537;28;20116;-54
2022/12/05 08:06:10;;;;;;;51.83;10.85;;;;;;;0.01;0.00;59042.03;5020146;28;20077;-55
2022/12/05 08:08:35;;;;;;;44.03;9.63;;;;;;;0.01;0.00;59042.03;5021072;28;20025;-54
2022/12/05 08:11:12;;;;;;;46.35;10.63;;;;;;;0.01;0.00;59042.03;5020088;28;20593;-55
2022/12/05 08:13:38;;;;;;;47.13;9.48;;;;;;;0.01;0.00;59042.03;5021489;28;20025;-54
2022/12/05 08:16:06;;;;;;;41.42;9.48;;;;;;;0.01;0.00;59042.03;5020559;28;20123;-54
2022/12/05 08:18:32;;;;;;;46.17;9.73;;;;;;;0.01;0.00;59042.03;5021367;28;20045;-55
2022/12/05 08:21:07;;;;;;;45.05;10.30;;;;;;;0.01;0.00;59042.03;5018079;28;20045;-55
2022/12/05 08:23:34;;;;;;;46.53;10.82;;;;;;;0.01;0.00;59042.03;5017042;28;20140;-54
2022/12/05 08:26:03;;;;;;;46.90;10.48;;;;;;;0.01;0.00;59042.03;5018395;28;20039;-55
2022/12/05 08:28:29;;;;;;;41.60;8.57;;;;;;;0.01;0.00;59042.03;5020864;28;20037;-55
2022/12/05 08:30:55;;;;;;;44.22;10.20;;;;;;;0.01;0.00;59042.03;5001338;28;20041;-53
2022/12/05 08:33:20;;;;;;;49.97;10.95;;;;;;;0.01;0.00;59042.03;5020629;28;20025;-53
2022/12/05 08:35:45;;;;;;;54.95;11.32;;;;;;;0.01;0.00;59042.03;5019824;28;20048;-53
2022/12/05 08:38:11;;;;;;;45.10;10.57;;;;;;;0.01;0.00;59042.03;5020693;28;20033;-52
2022/12/05 08:40:36;;;;;;;46.78;10.38;;;;;;;0.01;0.00;59042.03;5019718;28;20030;-55
2022/12/05 08:43:01;;;;;;;49.50;10.75;;;;;;;0.01;0.00;59042.03;5020292;28;20195;-54
2022/12/05 08:45:27;;;;;;;48.05;10.63;;;;;;;0.01;0.00;59042.03;5019762;28;20120;-53
2022/12/05 08:47:52;;;;;;;38.63;9.77;;;;;;;0.01;0.00;59042.03;5020457;28;20025;-53
2022/12/05 08:50:18;;;;;;;45.35;10.52;;;;;;;0.01;0.00;59042.03;5018754;28;20475;-53
2022/12/05 08:52:43;;;;;;;42.35;9.82;;;;;;;0.01;0.00;59042.03;5019573;28;20491;-54
2022/12/05 08:55:08;;;;;;;40.85;10.38;;;;;;;0.01;0.00;59042.03;5018673;28;20040;-54
2022/12/05 08:57:33;;;;;;;45.38;10.52;;;;;;;0.01;0.00;59042.03;5018785;28;20112;-54
2022/12/05 08:59:59;;;;;;;51.80;10.65;;;;;;;0.01;0.00;59042.03;5020499;28;20116;-53
2022/12/05 09:02:24;;;;;;;44.03;9.07;;;;;;;0.01;0.00;59042.03;5018847;28;20046;-53
2022/12/05 09:04:50;;;;;;;51.00;11.65;;;;;;;0.01;0.00;59042.03;5019797;28;20609;-54
2022/12/05 09:07:16;;;;;;;37.40;9.05;;;;;;;0.01;0.00;59042.03;5019511;28;20037;-54
2022/12/05 09:09:41;;;;;;;52.10;12.48;;;;;;;0.01;0.00;59042.03;5018848;28;20329;-54
2022/12/05 09:12:07;;;;;;;41.85;10.75;;;;;;;0.01;0.00;59042.03;5015762;28;20040;-54
2022/12/05 09:14:32;;;;;;;42.78;10.60;;;;;;;0.01;0.00;59042.03;5019096;28;20091;-54
2022/12/05 09:16:59;;;;;;;44.13;10.25;;;;;;;0.01;0.00;59042.03;5019350;28;20572;-53
2022/12/05 09:19:26;;;;;;;43.95;10.63;;;;;;;0.01;0.00;59042.03;5019849;28;20822;-54
2022/12/05 09:21:52;;;;;;;45.15;9.80;;;;;;;0.01;0.00;59042.03;5019012;28;20541;-54
2022/12/05 09:24:17;;;;;;;44.33;10.48;;;;;;;0.01;0.00;59042.03;5014595;28;20021;-53
2022/12/05 09:26:43;;;;;;;44.55;10.07;;;;;;;0.01;0.00;59042.03;5017624;28;20041;-53
2022/12/05 09:29:09;;;;;;;49.95;11.48;;;;;;;0.01;0.00;59042.03;5019061;28;20030;-54
2022/12/05 09:31:35;;;;;;;35.45;8.60;;;;;;;0.01;0.00;59042.03;5018988;28;20037;-53
2022/12/05 09:34:01;;;;;;;46.63;11.38;;;;;;;0.01;0.00;59042.03;5018946;28;20024;-54
2022/12/05 09:36:29;;;;;;;44.63;10.73;;;;;;;0.01;0.00;59042.03;5018999;28;20113;-53
2022/12/05 09:38:59;;;;;;;51.75;11.45;;;;;;;0.01;0.00;59042.03;5019459;28;20037;-53
2022/12/05 09:42:04;;;;;;;32.50;8.32;;;;;;;0.01;0.00;59042.03;5018136;28;20048;-53
2022/12/05 09:44:55;;;;;;;64.35;13.05;;;;;;;0.01;0.00;59042.03;5019184;28;20104;-55
2022/12/05 09:47:26;;;;;;;96.18;14.38;;;;;;;0.01;0.00;59042.03;5018541;28;20052;-52
2022/12/05 09:50:13;;;;;;;70.13;13.40;;;;;;;0.01;0.00;59042.03;4992288;28;20033;-53
2022/12/05 09:53:08;;;;;;;63.60;13.25;;;;;;;0.01;0.00;59042.03;5016776;28;20431;-53
2022/12/05 09:55:33;;;;;;;42.53;10.20;;;;;;;0.01;0.00;59042.03;5006966;28;20173;-56
2022/12/05 09:58:01;;;;;;;58.92;12.95;;;;;;;0.01;0.00;59042.03;5018713;28;20033;-53
2022/12/05 10:00:29;;;;;;;53.88;12.75;;;;;;;0.01;0.00;59042.03;5018173;28;20037;-53
2022/12/05 10:03:45;;;;;;;50.38;10.98;;;;;;;0.01;0.00;59042.03;5018911;28;20033;-53
2022/12/05 10:06:20;;;;;;;36.58;9.23;;;;;;;0.01;0.00;59042.03;5015803;28;20144;-54
2022/12/05 10:09:19;;;;;;;47.17;11.55;;;;;;;0.01;0.00;59042.03;5019121;28;20175;-57
2022/12/05 10:12:03;;;;;;;49.95;11.80;;;;;;;0.01;0.00;59042.03;5018161;28;20119;-54
2022/12/05 10:14:46;;;;;;;48.42;11.00;;;;;;;0.01;0.00;59042.03;5018566;28;20112;-54
2022/12/05 10:17:27;;;;;;;49.13;10.70;;;;;;;0.01;0.00;59042.03;5018010;28;20037;-56
2022/12/05 10:19:58;;;;;;;55.08;11.70;;;;;;;0.01;0.00;59042.03;5018180;28;20022;-54
2022/12/05 10:22:29;;;;;;;45.90;10.77;;;;;;;0.01;0.00;59042.03;5016847;28;20580;-54
2022/12/05 10:25:00;;;;;;;52.17;11.10;;;;;;;0.01;0.00;59042.03;5015119;28;20033;-54
2022/12/05 10:27:39;;;;;;;42.50;9.93;;;;;;;0.01;0.00;59042.03;5017386;28;20523;-54
2022/12/05 10:30:13;;;;;;;45.30;10.70;;;;;;;0.01;0.00;59042.03;5017836;28;20355;-56
2022/12/05 10:32:55;;;;;;;41.83;9.13;;;;;;;0.01;0.00;59042.03;5018228;28;20059;-53
2022/12/05 10:35:33;;;;;;;44.90;10.57;;;;;;;0.01;0.00;59042.03;5018102;28;20040;-56
2022/12/05 10:38:03;;;;;;;48.60;11.63;;;;;;;0.01;0.00;59042.03;5018405;28;20018;-54
2022/12/05 10:40:38;;;;;;;40.90;10.45;;;;;;;0.01;0.00;59042.03;5017783;28;20100;-55
2022/12/05 10:43:07;;;;;;;32.38;7.68;;;;;;;0.01;0.00;59042.03;5017337;28;20495;-54
2022/12/05 10:45:33;;;;;;;38.47;8.90;;;;;;;0.01;0.00;59042.03;5017803;28;20535;-54
2022/12/05 10:47:59;;;;;;;37.60;9.00;;;;;;;0.01;0.00;59042.03;5017519;28;20217;-54
2022/12/05 10:50:30;;;;;;;46.78;11.20;;;;;;;0.01;0.00;59042.03;5017866;28;20029;-54
2022/12/05 10:52:59;;;;;;;101.57;15.70;;;;;;;0.01;0.00;59042.03;5014489;28;20025;-53
2022/12/05 10:55:49;;;;;;;71.38;12.15;;;;;;;0.01;0.00;59042.03;5015499;28;20033;-54
2022/12/05 10:58:24;;;;;;;86.13;12.98;;;;;;;0.01;0.00;59042.03;5017991;28;20057;-54
2022/12/05 11:01:12;;;;;;;69.95;12.52;;;;;;;0.01;0.00;59042.03;5017296;28;20092;-54
2022/12/05 11:03:40;;;;;;;66.95;12.07;;;;;;;0.01;0.00;59042.03;5017330;28;20033;-54
2022/12/05 11:06:24;;;;;;;45.45;10.70;;;;;;;0.01;0.00;59042.03;5017405;28;20503;-56
2022/12/05 11:08:53;;;;;;;51.08;10.73;;;;;;;0.01;0.00;59042.03;5017829;28;20668;-55
2022/12/05 11:11:26;;;;;;;51.22;11.55;;;;;;;0.01;0.00;59042.03;5016604;28;20124;-55
2022/12/05 11:13:53;;;;;;;42.97;10.52;;;;;;;0.01;0.00;59042.03;5017666;28;20099;-54
2022/12/05 11:16:25;;;;;;;49.75;10.77;;;;;;;0.01;0.00;59042.03;5016767;28;20506;-54
2022/12/05 11:18:52;;;;;;;46.88;10.40;;;;;;;0.01;0.00;59042.03;5017010;28;20032;-54
2022/12/05 11:21:18;;;;;;;49.13;11.80;;;;;;;0.01;0.00;59042.03;5016891;28;20430;-54
2022/12/05 11:23:44;;;;;;;43.50;10.15;;;;;;;0.01;0.00;59042.03;5013794;28;20033;-53
2022/12/05 11:26:18;;;;;;;43.65;10.27;;;;;;;0.01;0.00;59042.03;5015222;28;20262;-54
2022/12/05 11:28:44;;;;;;;41.65;10.23;;;;;;;0.01;0.00;59042.03;5017588;28;20112;-53
2022/12/05 11:31:15;;;;;;;47.55;12.10;;;;;;;0.01;0.00;59042.03;5016829;28;20051;-55
2022/12/05 11:33:40;;;;;;;47.22;12.57;;;;;;;0.01;0.00;59042.03;5017006;28;20029;-53
2022/12/05 11:36:13;;;;;;;41.42;10.60;;;;;;;0.01;0.00;59042.03;5017075;28;20041;-54
2022/12/05 11:38:40;;;;;;;50.55;12.15;;;;;;;0.01;0.00;59042.03;5017025;28;20148;-53
2022/12/05 11:41:43;;;;;;;42.10;11.93;;;;;;;0.01;0.00;59042.03;5016837;28;20060;-55
2022/12/05 11:44:23;;;;;;;47.10;12.93;;;;;;;0.01;0.00;59042.03;5017188;28;20498;-56
2022/12/05 11:47:20;;;;;;;59.03;13.43;;;;;;;0.01;0.00;59042.03;5017163;28;20132;-54
2022/12/05 11:50:13;;;;;;;45.13;11.38;;;;;;;0.01;0.00;59042.03;5017089;28;20029;-54
2022/12/05 11:52:38;;;;;;;;;;;;;;;0.01;0.00;59042.03;5015390;28;20049;-54
2022/12/05 11:55:15;;;;;;;45.87;11.37;;;;;;;0.01;0.00;59042.03;5015319;28;19917;-54
2022/12/05 11:57:56;;;;;;;43.92;11.20;;;;;;;0.01;0.00;59042.03;4998372;28;20402;-54
2022/12/05 12:00:30;;;;;;;38.35;10.20;;;;;;;0.01;0.00;59042.03;5016882;28;20037;-54